sensor_id;sensor_type;location;lat;lon;timestamp;P1;durP1;ratioP1;P2;durP2;ratioP2
76597;SDS011;65486;53.144;18.134;2023-04-16T00:01:26;6.00;;;4.30;;
76597;SDS011;65486;53.144;18.134;2023-04-16T00:03:53;9.10;;;5.30;;
76597;SDS011;65486;53.144;18.134;2023-04-16T00:06:21;6.70;;;4.70;;
76597;SDS011;65486;53.144;18.134;2023-04-16T00:08:48;10.30;;;6.20;;
76597;SDS011;65486;53.144;18.134;2023-04-16T00:11:16;8.00;;;5.50;;
76597;SDS011;65486;53.144;18.134;2023-04-16T00:13:43;8.00;;;5.40;;
76597;SDS011;65486;53.144;18.134;2023-04-16T00:16:09;7.70;;;5.30;;
76597;SDS011;65486;53.144;18.134;2023-04-16T00:18:36;9.00;;;4.40;;
76597;SDS011;65486;53.144;18.134;2023-04-16T00:21:05;7.20;;;4.90;;
76597;SDS011;65486;53.144;18.134;2023-04-16T00:23:33;9.10;;;5.20;;
76597;SDS011;65486;53.144;18.134;2023-04-16T00:26:00;8.60;;;5.30;;
76597;SDS011;65486;53.144;18.134;2023-04-16T00:28:27;8.00;;;4.50;;
76597;SDS011;65486;53.144;18.134;2023-04-16T00:30:54;8.00;;;5.50;;
76597;SDS011;65486;53.144;18.134;2023-04-16T00:33:21;8.40;;;5.00;;
76597;SDS011;65486;53.144;18.134;2023-04-16T00:35:49;6.50;;;4.30;;
76597;SDS011;65486;53.144;18.134;2023-04-16T00:38:16;9.40;;;6.20;;
76597;SDS011;65486;53.144;18.134;2023-04-16T00:40:43;8.80;;;5.30;;
76597;SDS011;65486;53.144;18.134;2023-04-16T00:43:10;8.80;;;5.10;;
76597;SDS011;65486;53.144;18.134;2023-04-16T00:45:36;10.60;;;6.40;;
76597;SDS011;65486;53.144;18.134;2023-04-16T00:48:03;8.80;;;5.80;;
76597;SDS011;65486;53.144;18.134;2023-04-16T00:50:31;9.10;;;5.90;;
76597;SDS011;65486;53.144;18.134;2023-04-16T00:52:59;8.50;;;5.60;;
76597;SDS011;65486;53.144;18.134;2023-04-16T00:55:27;8.50;;;5.20;;
76597;SDS011;65486;53.144;18.134;2023-04-16T00:57:54;6.10;;;3.40;;
76597;SDS011;65486;53.144;18.134;2023-04-16T01:00:21;12.00;;;7.50;;
76597;SDS011;65486;53.144;18.134;2023-04-16T01:02:48;9.00;;;5.70;;
76597;SDS011;65486;53.144;18.134;2023-04-16T01:05:15;9.90;;;5.50;;
76597;SDS011;65486;53.144;18.134;2023-04-16T01:07:42;9.60;;;5.20;;
76597;SDS011;65486;53.144;18.134;2023-04-16T01:10:08;8.10;;;5.20;;
76597;SDS011;65486;53.144;18.134;2023-04-16T01:12:35;9.70;;;6.60;;
76597;SDS011;65486;53.144;18.134;2023-04-16T01:15:02;10.10;;;6.10;;
76597;SDS011;65486;53.144;18.134;2023-04-16T01:17:30;8.50;;;5.60;;
76597;SDS011;65486;53.144;18.134;2023-04-16T01:19:57;10.00;;;6.70;;
76597;SDS011;65486;53.144;18.134;2023-04-16T01:22:28;9.50;;;6.40;;
76597;SDS011;65486;53.144;18.134;2023-04-16T01:24:55;10.10;;;6.70;;
76597;SDS011;65486;53.144;18.134;2023-04-16T01:27:23;9.60;;;5.90;;
76597;SDS011;65486;53.144;18.134;2023-04-16T01:29:50;7.70;;;5.20;;
76597;SDS011;65486;53.144;18.134;2023-04-16T01:32:20;10.70;;;6.60;;
76597;SDS011;65486;53.144;18.134;2023-04-16T01:34:47;8.60;;;5.40;;
76597;SDS011;65486;53.144;18.134;2023-04-16T01:37:14;10.00;;;6.50;;
76597;SDS011;65486;53.144;18.134;2023-04-16T01:39:41;11.00;;;6.70;;
76597;SDS011;65486;53.144;18.134;2023-04-16T01:42:08;7.70;;;4.90;;
76597;SDS011;65486;53.144;18.134;2023-04-16T01:44:35;9.60;;;6.00;;
76597;SDS011;65486;53.144;18.134;2023-04-16T01:47:02;9.90;;;6.10;;
76597;SDS011;65486;53.144;18.134;2023-04-16T01:49:29;11.70;;;7.50;;
76597;SDS011;65486;53.144;18.134;2023-04-16T01:51:56;7.70;;;4.80;;
76597;SDS011;65486;53.144;18.134;2023-04-16T01:54:23;10.00;;;6.60;;
76597;SDS011;65486;53.144;18.134;2023-04-16T01:56:51;11.90;;;6.60;;
76597;SDS011;65486;53.144;18.134;2023-04-16T01:59:18;8.90;;;5.90;;
76597;SDS011;65486;53.144;18.134;2023-04-16T02:01:46;10.30;;;6.80;;
76597;SDS011;65486;53.144;18.134;2023-04-16T02:04:14;9.10;;;4.80;;
76597;SDS011;65486;53.144;18.134;2023-04-16T02:06:41;12.70;;;7.10;;
76597;SDS011;65486;53.144;18.134;2023-04-16T02:09:08;9.80;;;6.20;;
76597;SDS011;65486;53.144;18.134;2023-04-16T02:11:36;10.70;;;6.50;;
76597;SDS011;65486;53.144;18.134;2023-04-16T02:14:04;8.60;;;6.10;;
76597;SDS011;65486;53.144;18.134;2023-04-16T02:16:30;11.10;;;6.90;;
76597;SDS011;65486;53.144;18.134;2023-04-16T02:19:23;10.70;;;7.10;;
76597;SDS011;65486;53.144;18.134;2023-04-16T02:21:51;10.10;;;5.90;;
76597;SDS011;65486;53.144;18.134;2023-04-16T02:24:18;10.30;;;6.10;;
76597;SDS011;65486;53.144;18.134;2023-04-16T02:26:46;9.30;;;5.10;;
76597;SDS011;65486;53.144;18.134;2023-04-16T02:29:14;10.70;;;6.90;;
76597;SDS011;65486;53.144;18.134;2023-04-16T02:31:44;9.10;;;7.80;;
76597;SDS011;65486;53.144;18.134;2023-04-16T02:34:12;9.70;;;6.10;;
76597;SDS011;65486;53.144;18.134;2023-04-16T02:36:40;9.10;;;6.10;;
76597;SDS011;65486;53.144;18.134;2023-04-16T02:39:07;10.50;;;6.90;;
76597;SDS011;65486;53.144;18.134;2023-04-16T02:41:34;10.80;;;7.20;;
76597;SDS011;65486;53.144;18.134;2023-04-16T02:44:02;10.00;;;6.30;;
76597;SDS011;65486;53.144;18.134;2023-04-16T02:46:28;11.50;;;7.30;;
76597;SDS011;65486;53.144;18.134;2023-04-16T02:48:55;8.10;;;5.00;;
76597;SDS011;65486;53.144;18.134;2023-04-16T02:51:22;8.70;;;5.10;;
76597;SDS011;65486;53.144;18.134;2023-04-16T02:53:49;9.90;;;6.40;;
76597;SDS011;65486;53.144;18.134;2023-04-16T02:56:15;11.00;;;7.60;;
76597;SDS011;65486;53.144;18.134;2023-04-16T02:58:42;9.90;;;6.40;;
76597;SDS011;65486;53.144;18.134;2023-04-16T03:01:09;12.40;;;6.70;;
76597;SDS011;65486;53.144;18.134;2023-04-16T03:03:36;9.00;;;5.80;;
76597;SDS011;65486;53.144;18.134;2023-04-16T03:06:03;9.50;;;6.30;;
76597;SDS011;65486;53.144;18.134;2023-04-16T03:08:29;7.50;;;4.10;;
76597;SDS011;65486;53.144;18.134;2023-04-16T03:10:56;9.50;;;6.00;;
76597;SDS011;65486;53.144;18.134;2023-04-16T03:13:23;7.50;;;4.80;;
76597;SDS011;65486;53.144;18.134;2023-04-16T03:15:50;11.80;;;6.30;;
76597;SDS011;65486;53.144;18.134;2023-04-16T03:18:17;8.90;;;6.00;;
76597;SDS011;65486;53.144;18.134;2023-04-16T03:20:44;11.30;;;6.80;;
76597;SDS011;65486;53.144;18.134;2023-04-16T03:23:11;8.20;;;4.90;;
76597;SDS011;65486;53.144;18.134;2023-04-16T03:25:38;8.00;;;5.20;;
76597;SDS011;65486;53.144;18.134;2023-04-16T03:28:07;8.50;;;5.10;;
76597;SDS011;65486;53.144;18.134;2023-04-16T03:30:34;9.30;;;6.70;;
76597;SDS011;65486;53.144;18.134;2023-04-16T03:33:01;10.50;;;7.20;;
76597;SDS011;65486;53.144;18.134;2023-04-16T03:35:28;10.10;;;6.70;;
76597;SDS011;65486;53.144;18.134;2023-04-16T03:37:55;11.10;;;7.10;;
76597;SDS011;65486;53.144;18.134;2023-04-16T03:40:24;10.30;;;6.30;;
76597;SDS011;65486;53.144;18.134;2023-04-16T03:42:54;8.60;;;5.80;;
76597;SDS011;65486;53.144;18.134;2023-04-16T03:45:21;9.60;;;6.10;;
76597;SDS011;65486;53.144;18.134;2023-04-16T03:47:49;9.70;;;6.70;;
76597;SDS011;65486;53.144;18.134;2023-04-16T03:50:18;10.20;;;6.20;;
76597;SDS011;65486;53.144;18.134;2023-04-16T03:52:45;11.00;;;6.70;;
76597;SDS011;65486;53.144;18.134;2023-04-16T03:55:14;11.10;;;7.00;;
76597;SDS011;65486;53.144;18.134;2023-04-16T03:57:41;10.60;;;6.60;;
76597;SDS011;65486;53.144;18.134;2023-04-16T04:00:12;10.60;;;6.90;;
76597;SDS011;65486;53.144;18.134;2023-04-16T04:03:01;10.20;;;5.90;;
76597;SDS011;65486;53.144;18.134;2023-04-16T04:05:28;8.50;;;5.50;;
76597;SDS011;65486;53.144;18.134;2023-04-16T04:07:55;9.70;;;6.50;;
76597;SDS011;65486;53.144;18.134;2023-04-16T04:10:22;9.70;;;6.10;;
76597;SDS011;65486;53.144;18.134;2023-04-16T04:12:51;10.20;;;6.50;;
76597;SDS011;65486;53.144;18.134;2023-04-16T04:15:18;10.00;;;6.10;;
76597;SDS011;65486;53.144;18.134;2023-04-16T04:17:44;10.40;;;6.50;;
76597;SDS011;65486;53.144;18.134;2023-04-16T04:20:12;10.50;;;6.40;;
76597;SDS011;65486;53.144;18.134;2023-04-16T04:22:42;9.10;;;5.80;;
76597;SDS011;65486;53.144;18.134;2023-04-16T04:25:09;10.00;;;6.30;;
76597;SDS011;65486;53.144;18.134;2023-04-16T04:27:37;10.30;;;6.20;;
76597;SDS011;65486;53.144;18.134;2023-04-16T04:30:04;11.30;;;6.90;;
76597;SDS011;65486;53.144;18.134;2023-04-16T04:32:31;10.40;;;6.20;;
76597;SDS011;65486;53.144;18.134;2023-04-16T04:34:59;9.50;;;6.20;;
76597;SDS011;65486;53.144;18.134;2023-04-16T04:37:28;12.00;;;7.30;;
76597;SDS011;65486;53.144;18.134;2023-04-16T04:39:55;9.70;;;5.70;;
76597;SDS011;65486;53.144;18.134;2023-04-16T04:42:23;12.40;;;7.50;;
76597;SDS011;65486;53.144;18.134;2023-04-16T04:44:50;8.80;;;5.60;;
76597;SDS011;65486;53.144;18.134;2023-04-16T04:47:18;9.10;;;5.40;;
76597;SDS011;65486;53.144;18.134;2023-04-16T04:49:44;9.60;;;6.10;;
76597;SDS011;65486;53.144;18.134;2023-04-16T04:52:11;9.10;;;6.00;;
76597;SDS011;65486;53.144;18.134;2023-04-16T04:54:40;11.00;;;6.70;;
76597;SDS011;65486;53.144;18.134;2023-04-16T04:57:07;9.70;;;6.10;;
76597;SDS011;65486;53.144;18.134;2023-04-16T04:59:34;9.60;;;6.30;;
76597;SDS011;65486;53.144;18.134;2023-04-16T05:02:02;11.30;;;7.20;;
76597;SDS011;65486;53.144;18.134;2023-04-16T05:04:29;10.30;;;6.30;;
76597;SDS011;65486;53.144;18.134;2023-04-16T05:06:56;11.00;;;6.90;;
76597;SDS011;65486;53.144;18.134;2023-04-16T05:09:23;10.70;;;6.50;;
76597;SDS011;65486;53.144;18.134;2023-04-16T05:11:50;9.00;;;5.90;;
76597;SDS011;65486;53.144;18.134;2023-04-16T05:14:17;9.80;;;5.80;;
76597;SDS011;65486;53.144;18.134;2023-04-16T05:16:44;10.40;;;6.10;;
76597;SDS011;65486;53.144;18.134;2023-04-16T05:19:11;10.80;;;6.50;;
76597;SDS011;65486;53.144;18.134;2023-04-16T05:21:39;13.00;;;8.00;;
76597;SDS011;65486;53.144;18.134;2023-04-16T05:24:06;10.90;;;6.10;;
76597;SDS011;65486;53.144;18.134;2023-04-16T05:26:33;9.80;;;5.70;;
76597;SDS011;65486;53.144;18.134;2023-04-16T05:29:01;10.40;;;6.30;;
76597;SDS011;65486;53.144;18.134;2023-04-16T05:31:28;8.80;;;5.50;;
76597;SDS011;65486;53.144;18.134;2023-04-16T05:33:55;10.30;;;6.40;;
76597;SDS011;65486;53.144;18.134;2023-04-16T05:36:22;10.60;;;6.30;;
76597;SDS011;65486;53.144;18.134;2023-04-16T05:38:49;10.30;;;6.70;;
76597;SDS011;65486;53.144;18.134;2023-04-16T05:41:16;11.80;;;7.00;;
76597;SDS011;65486;53.144;18.134;2023-04-16T05:43:44;13.40;;;8.00;;
76597;SDS011;65486;53.144;18.134;2023-04-16T05:46:11;11.20;;;6.70;;
76597;SDS011;65486;53.144;18.134;2023-04-16T05:48:40;11.00;;;6.70;;
76597;SDS011;65486;53.144;18.134;2023-04-16T05:51:08;10.00;;;6.30;;
76597;SDS011;65486;53.144;18.134;2023-04-16T05:53:35;10.00;;;6.10;;
76597;SDS011;65486;53.144;18.134;2023-04-16T05:56:02;11.00;;;6.30;;
76597;SDS011;65486;53.144;18.134;2023-04-16T05:58:29;13.70;;;7.90;;
76597;SDS011;65486;53.144;18.134;2023-04-16T06:00:56;10.20;;;6.40;;
76597;SDS011;65486;53.144;18.134;2023-04-16T06:03:23;11.00;;;6.70;;
76597;SDS011;65486;53.144;18.134;2023-04-16T06:05:50;11.90;;;6.30;;
76597;SDS011;65486;53.144;18.134;2023-04-16T06:08:17;9.90;;;5.90;;
76597;SDS011;65486;53.144;18.134;2023-04-16T06:10:45;8.90;;;6.80;;
76597;SDS011;65486;53.144;18.134;2023-04-16T06:13:13;9.50;;;5.60;;
76597;SDS011;65486;53.144;18.134;2023-04-16T06:15:41;11.20;;;6.40;;
76597;SDS011;65486;53.144;18.134;2023-04-16T06:18:08;11.70;;;6.50;;
76597;SDS011;65486;53.144;18.134;2023-04-16T06:20:35;10.30;;;6.10;;
76597;SDS011;65486;53.144;18.134;2023-04-16T06:23:02;10.40;;;6.50;;
76597;SDS011;65486;53.144;18.134;2023-04-16T06:25:29;10.90;;;6.30;;
76597;SDS011;65486;53.144;18.134;2023-04-16T06:27:56;9.90;;;5.00;;
76597;SDS011;65486;53.144;18.134;2023-04-16T06:30:24;10.50;;;5.50;;
76597;SDS011;65486;53.144;18.134;2023-04-16T06:32:51;9.90;;;6.20;;
76597;SDS011;65486;53.144;18.134;2023-04-16T06:35:18;9.60;;;6.20;;
76597;SDS011;65486;53.144;18.134;2023-04-16T06:37:46;8.80;;;5.30;;
76597;SDS011;65486;53.144;18.134;2023-04-16T06:40:12;12.60;;;7.60;;
76597;SDS011;65486;53.144;18.134;2023-04-16T06:42:42;9.30;;;5.30;;
76597;SDS011;65486;53.144;18.134;2023-04-16T06:45:11;12.10;;;6.50;;
76597;SDS011;65486;53.144;18.134;2023-04-16T06:47:38;11.30;;;7.20;;
76597;SDS011;65486;53.144;18.134;2023-04-16T06:50:06;11.10;;;7.00;;
76597;SDS011;65486;53.144;18.134;2023-04-16T06:52:34;13.30;;;7.70;;
76597;SDS011;65486;53.144;18.134;2023-04-16T06:55:03;11.40;;;6.60;;
76597;SDS011;65486;53.144;18.134;2023-04-16T06:57:31;12.40;;;6.90;;
76597;SDS011;65486;53.144;18.134;2023-04-16T06:59:57;12.20;;;6.70;;
76597;SDS011;65486;53.144;18.134;2023-04-16T07:02:24;13.30;;;7.50;;
76597;SDS011;65486;53.144;18.134;2023-04-16T07:04:51;13.80;;;7.70;;
76597;SDS011;65486;53.144;18.134;2023-04-16T07:07:19;16.70;;;9.60;;
76597;SDS011;65486;53.144;18.134;2023-04-16T07:09:47;11.80;;;7.30;;
76597;SDS011;65486;53.144;18.134;2023-04-16T07:12:14;17.20;;;8.30;;
76597;SDS011;65486;53.144;18.134;2023-04-16T07:14:42;15.60;;;8.40;;
76597;SDS011;65486;53.144;18.134;2023-04-16T07:17:10;12.40;;;6.90;;
76597;SDS011;65486;53.144;18.134;2023-04-16T07:19:38;15.40;;;8.80;;
76597;SDS011;65486;53.144;18.134;2023-04-16T07:22:05;18.50;;;10.20;;
76597;SDS011;65486;53.144;18.134;2023-04-16T07:24:37;14.90;;;8.50;;
76597;SDS011;65486;53.144;18.134;2023-04-16T07:27:07;16.90;;;9.20;;
76597;SDS011;65486;53.144;18.134;2023-04-16T07:29:35;14.90;;;8.50;;
76597;SDS011;65486;53.144;18.134;2023-04-16T07:32:03;17.30;;;9.70;;
76597;SDS011;65486;53.144;18.134;2023-04-16T07:34:30;15.50;;;9.00;;
76597;SDS011;65486;53.144;18.134;2023-04-16T07:36:57;17.10;;;9.00;;
76597;SDS011;65486;53.144;18.134;2023-04-16T07:39:24;16.00;;;8.80;;
76597;SDS011;65486;53.144;18.134;2023-04-16T07:41:51;16.20;;;8.90;;
76597;SDS011;65486;53.144;18.134;2023-04-16T07:44:18;17.90;;;9.90;;
76597;SDS011;65486;53.144;18.134;2023-04-16T07:46:45;15.90;;;7.80;;
76597;SDS011;65486;53.144;18.134;2023-04-16T07:49:14;16.70;;;9.70;;
76597;SDS011;65486;53.144;18.134;2023-04-16T07:51:41;13.30;;;7.70;;
76597;SDS011;65486;53.144;18.134;2023-04-16T07:54:09;13.70;;;7.80;;
76597;SDS011;65486;53.144;18.134;2023-04-16T07:56:39;15.40;;;8.70;;
76597;SDS011;65486;53.144;18.134;2023-04-16T07:59:06;14.60;;;8.10;;
76597;SDS011;65486;53.144;18.134;2023-04-16T08:01:33;14.00;;;8.40;;
76597;SDS011;65486;53.144;18.134;2023-04-16T08:04:03;11.00;;;6.30;;
76597;SDS011;65486;53.144;18.134;2023-04-16T08:06:35;13.60;;;7.60;;
76597;SDS011;65486;53.144;18.134;2023-04-16T08:09:08;15.00;;;7.80;;
76597;SDS011;65486;53.144;18.134;2023-04-16T08:11:35;14.70;;;7.80;;
76597;SDS011;65486;53.144;18.134;2023-04-16T08:14:08;17.00;;;9.80;;
76597;SDS011;65486;53.144;18.134;2023-04-16T08:16:35;16.10;;;8.60;;
76597;SDS011;65486;53.144;18.134;2023-04-16T08:19:02;18.80;;;11.00;;
76597;SDS011;65486;53.144;18.134;2023-04-16T08:21:29;16.70;;;9.20;;
76597;SDS011;65486;53.144;18.134;2023-04-16T08:24:01;18.30;;;10.20;;
76597;SDS011;65486;53.144;18.134;2023-04-16T08:26:31;18.60;;;10.70;;
76597;SDS011;65486;53.144;18.134;2023-04-16T08:28:58;18.20;;;10.30;;
76597;SDS011;65486;53.144;18.134;2023-04-16T08:31:26;13.80;;;7.80;;
76597;SDS011;65486;53.144;18.134;2023-04-16T08:33:58;15.00;;;7.10;;
76597;SDS011;65486;53.144;18.134;2023-04-16T08:36:33;16.60;;;8.80;;
76597;SDS011;65486;53.144;18.134;2023-04-16T08:39:08;14.20;;;8.10;;
76597;SDS011;65486;53.144;18.134;2023-04-16T08:41:37;20.50;;;11.10;;
76597;SDS011;65486;53.144;18.134;2023-04-16T08:44:08;17.50;;;8.80;;
76597;SDS011;65486;53.144;18.134;2023-04-16T08:46:43;16.20;;;8.90;;
76597;SDS011;65486;53.144;18.134;2023-04-16T08:49:16;14.30;;;7.70;;
76597;SDS011;65486;53.144;18.134;2023-04-16T08:51:48;11.80;;;6.80;;
76597;SDS011;65486;53.144;18.134;2023-04-16T08:54:27;11.70;;;6.90;;
76597;SDS011;65486;53.144;18.134;2023-04-16T08:57:05;18.80;;;9.30;;
76597;SDS011;65486;53.144;18.134;2023-04-16T08:59:37;17.10;;;9.00;;
76597;SDS011;65486;53.144;18.134;2023-04-16T09:02:08;19.00;;;9.70;;
76597;SDS011;65486;53.144;18.134;2023-04-16T09:04:40;16.90;;;8.30;;
76597;SDS011;65486;53.144;18.134;2023-04-16T09:07:12;17.40;;;9.90;;
76597;SDS011;65486;53.144;18.134;2023-04-16T09:09:43;18.60;;;10.00;;
76597;SDS011;65486;53.144;18.134;2023-04-16T09:12:22;23.90;;;12.70;;
76597;SDS011;65486;53.144;18.134;2023-04-16T09:14:50;15.00;;;8.60;;
76597;SDS011;65486;53.144;18.134;2023-04-16T09:17:21;21.30;;;11.30;;
76597;SDS011;65486;53.144;18.134;2023-04-16T09:19:50;19.10;;;10.60;;
76597;SDS011;65486;53.144;18.134;2023-04-16T09:22:19;19.40;;;10.00;;
76597;SDS011;65486;53.144;18.134;2023-04-16T09:24:47;20.20;;;10.70;;
76597;SDS011;65486;53.144;18.134;2023-04-16T09:27:14;16.80;;;9.60;;
76597;SDS011;65486;53.144;18.134;2023-04-16T09:29:42;19.20;;;10.80;;
76597;SDS011;65486;53.144;18.134;2023-04-16T09:32:10;16.80;;;8.70;;
76597;SDS011;65486;53.144;18.134;2023-04-16T09:37:42;17.40;;;10.10;;
76597;SDS011;65486;53.144;18.134;2023-04-16T09:40:09;15.90;;;9.10;;
76597;SDS011;65486;53.144;18.134;2023-04-16T09:42:48;18.80;;;10.30;;
76597;SDS011;65486;53.144;18.134;2023-04-16T09:45:29;13.60;;;7.80;;
76597;SDS011;65486;53.144;18.134;2023-04-16T09:48:07;13.50;;;7.40;;
76597;SDS011;65486;53.144;18.134;2023-04-16T09:50:50;16.80;;;9.50;;
76597;SDS011;65486;53.144;18.134;2023-04-16T09:53:30;13.80;;;8.40;;
76597;SDS011;65486;53.144;18.134;2023-04-16T09:56:04;14.60;;;8.20;;
76597;SDS011;65486;53.144;18.134;2023-04-16T09:58:34;11.90;;;7.40;;
76597;SDS011;65486;53.144;18.134;2023-04-16T10:01:07;16.00;;;8.60;;
76597;SDS011;65486;53.144;18.134;2023-04-16T10:03:37;14.60;;;7.50;;
76597;SDS011;65486;53.144;18.134;2023-04-16T10:06:16;10.90;;;5.60;;
76597;SDS011;65486;53.144;18.134;2023-04-16T10:08:50;11.60;;;6.50;;
76597;SDS011;65486;53.144;18.134;2023-04-16T10:11:19;12.10;;;7.00;;
76597;SDS011;65486;53.144;18.134;2023-04-16T10:13:48;14.20;;;7.70;;
76597;SDS011;65486;53.144;18.134;2023-04-16T10:16:22;11.40;;;6.60;;
76597;SDS011;65486;53.144;18.134;2023-04-16T10:18:49;14.40;;;8.70;;
76597;SDS011;65486;53.144;18.134;2023-04-16T10:24:35;13.70;;;7.40;;
76597;SDS011;65486;53.144;18.134;2023-04-16T10:27:04;9.80;;;6.00;;
76597;SDS011;65486;53.144;18.134;2023-04-16T10:29:42;12.80;;;6.40;;
76597;SDS011;65486;53.144;18.134;2023-04-16T10:32:39;16.10;;;9.10;;
76597;SDS011;65486;53.144;18.134;2023-04-16T10:35:18;15.80;;;9.50;;
76597;SDS011;65486;53.144;18.134;2023-04-16T10:37:55;13.00;;;8.20;;
76597;SDS011;65486;53.144;18.134;2023-04-16T10:42:56;12.60;;;7.40;;
76597;SDS011;65486;53.144;18.134;2023-04-16T10:45:30;13.80;;;7.40;;
76597;SDS011;65486;53.144;18.134;2023-04-16T10:48:12;10.70;;;6.30;;
76597;SDS011;65486;53.144;18.134;2023-04-16T10:50:55;12.80;;;7.40;;
76597;SDS011;65486;53.144;18.134;2023-04-16T10:53:24;14.30;;;6.20;;
76597;SDS011;65486;53.144;18.134;2023-04-16T10:55:57;10.00;;;5.50;;
76597;SDS011;65486;53.144;18.134;2023-04-16T10:58:49;12.40;;;7.20;;
76597;SDS011;65486;53.144;18.134;2023-04-16T11:01:32;12.40;;;7.00;;
76597;SDS011;65486;53.144;18.134;2023-04-16T11:12:22;12.00;;;6.50;;
76597;SDS011;65486;53.144;18.134;2023-04-16T11:15:00;13.00;;;7.60;;
76597;SDS011;65486;53.144;18.134;2023-04-16T11:17:34;12.30;;;7.70;;
76597;SDS011;65486;53.144;18.134;2023-04-16T11:22:48;12.70;;;6.60;;
76597;SDS011;65486;53.144;18.134;2023-04-16T11:25:22;12.60;;;7.00;;
76597;SDS011;65486;53.144;18.134;2023-04-16T11:27:52;14.60;;;6.80;;
76597;SDS011;65486;53.144;18.134;2023-04-16T11:30:35;16.10;;;9.40;;
76597;SDS011;65486;53.144;18.134;2023-04-16T11:33:08;16.00;;;9.30;;
76597;SDS011;65486;53.144;18.134;2023-04-16T11:35:39;17.10;;;9.90;;
76597;SDS011;65486;53.144;18.134;2023-04-16T11:38:16;14.50;;;9.30;;
76597;SDS011;65486;53.144;18.134;2023-04-16T11:40:48;15.00;;;8.80;;
76597;SDS011;65486;53.144;18.134;2023-04-16T11:43:22;12.90;;;8.10;;
76597;SDS011;65486;53.144;18.134;2023-04-16T11:46:02;12.90;;;8.30;;
76597;SDS011;65486;53.144;18.134;2023-04-16T11:51:38;11.60;;;6.30;;
76597;SDS011;65486;53.144;18.134;2023-04-16T11:54:08;11.30;;;6.60;;
76597;SDS011;65486;53.144;18.134;2023-04-16T11:56:35;16.10;;;7.60;;
76597;SDS011;65486;53.144;18.134;2023-04-16T11:59:07;10.80;;;5.80;;
76597;SDS011;65486;53.144;18.134;2023-04-16T12:01:38;13.80;;;7.50;;
76597;SDS011;65486;53.144;18.134;2023-04-16T12:04:08;13.60;;;7.30;;
76597;SDS011;65486;53.144;18.134;2023-04-16T12:06:35;12.60;;;6.80;;
76597;SDS011;65486;53.144;18.134;2023-04-16T12:11:49;13.80;;;7.10;;
76597;SDS011;65486;53.144;18.134;2023-04-16T12:14:19;11.50;;;6.80;;
76597;SDS011;65486;53.144;18.134;2023-04-16T12:17:15;13.60;;;7.20;;
76597;SDS011;65486;53.144;18.134;2023-04-16T12:19:56;11.50;;;6.70;;
76597;SDS011;65486;53.144;18.134;2023-04-16T12:22:30;12.20;;;6.50;;
76597;SDS011;65486;53.144;18.134;2023-04-16T12:25:04;12.50;;;7.40;;
76597;SDS011;65486;53.144;18.134;2023-04-16T12:30:21;11.40;;;7.00;;
76597;SDS011;65486;53.144;18.134;2023-04-16T12:33:16;12.60;;;7.10;;
76597;SDS011;65486;53.144;18.134;2023-04-16T12:35:57;12.40;;;7.70;;
76597;SDS011;65486;53.144;18.134;2023-04-16T12:38:32;17.30;;;9.00;;
76597;SDS011;65486;53.144;18.134;2023-04-16T12:41:05;13.50;;;5.90;;
76597;SDS011;65486;53.144;18.134;2023-04-16T12:43:35;11.70;;;5.90;;
76597;SDS011;65486;53.144;18.134;2023-04-16T12:46:04;14.30;;;7.20;;
76597;SDS011;65486;53.144;18.134;2023-04-16T12:48:33;13.90;;;6.90;;
76597;SDS011;65486;53.144;18.134;2023-04-16T12:51:05;14.30;;;6.40;;
76597;SDS011;65486;53.144;18.134;2023-04-16T12:53:33;13.20;;;7.70;;
76597;SDS011;65486;53.144;18.134;2023-04-16T12:56:02;12.50;;;7.10;;
76597;SDS011;65486;53.144;18.134;2023-04-16T12:58:29;14.20;;;7.70;;
76597;SDS011;65486;53.144;18.134;2023-04-16T13:00:56;13.20;;;7.30;;
76597;SDS011;65486;53.144;18.134;2023-04-16T13:03:26;16.10;;;8.20;;
76597;SDS011;65486;53.144;18.134;2023-04-16T13:05:57;12.50;;;6.70;;
76597;SDS011;65486;53.144;18.134;2023-04-16T13:08:38;13.50;;;7.40;;
76597;SDS011;65486;53.144;18.134;2023-04-16T13:11:11;11.60;;;6.30;;
76597;SDS011;65486;53.144;18.134;2023-04-16T13:13:46;13.30;;;7.60;;
76597;SDS011;65486;53.144;18.134;2023-04-16T13:16:21;14.30;;;7.70;;
76597;SDS011;65486;53.144;18.134;2023-04-16T13:18:49;13.00;;;6.90;;
76597;SDS011;65486;53.144;18.134;2023-04-16T13:21:16;11.10;;;6.00;;
76597;SDS011;65486;53.144;18.134;2023-04-16T13:23:43;11.20;;;5.80;;
76597;SDS011;65486;53.144;18.134;2023-04-16T13:26:15;8.60;;;5.50;;
76597;SDS011;65486;53.144;18.134;2023-04-16T13:28:45;14.70;;;8.20;;
76597;SDS011;65486;53.144;18.134;2023-04-16T13:31:20;15.50;;;7.60;;
76597;SDS011;65486;53.144;18.134;2023-04-16T13:33:53;13.20;;;6.50;;
76597;SDS011;65486;53.144;18.134;2023-04-16T13:36:50;11.00;;;6.20;;
76597;SDS011;65486;53.144;18.134;2023-04-16T13:39:24;14.50;;;7.20;;
76597;SDS011;65486;53.144;18.134;2023-04-16T13:41:53;13.90;;;7.40;;
76597;SDS011;65486;53.144;18.134;2023-04-16T13:44:21;12.30;;;6.60;;
76597;SDS011;65486;53.144;18.134;2023-04-16T13:46:49;14.40;;;7.40;;
76597;SDS011;65486;53.144;18.134;2023-04-16T13:49:17;15.60;;;7.80;;
76597;SDS011;65486;53.144;18.134;2023-04-16T13:51:44;13.20;;;6.80;;
76597;SDS011;65486;53.144;18.134;2023-04-16T13:54:12;11.40;;;5.90;;
76597;SDS011;65486;53.144;18.134;2023-04-16T13:56:40;11.00;;;5.90;;
76597;SDS011;65486;53.144;18.134;2023-04-16T13:59:15;9.80;;;5.60;;
76597;SDS011;65486;53.144;18.134;2023-04-16T14:01:44;14.40;;;7.00;;
76597;SDS011;65486;53.144;18.134;2023-04-16T14:04:13;10.20;;;5.10;;
76597;SDS011;65486;53.144;18.134;2023-04-16T14:06:41;8.30;;;4.20;;
76597;SDS011;65486;53.144;18.134;2023-04-16T14:09:11;7.10;;;4.10;;
76597;SDS011;65486;53.144;18.134;2023-04-16T14:11:39;5.40;;;3.40;;
76597;SDS011;65486;53.144;18.134;2023-04-16T14:14:09;8.00;;;4.20;;
76597;SDS011;65486;53.144;18.134;2023-04-16T14:16:36;6.40;;;3.80;;
76597;SDS011;65486;53.144;18.134;2023-04-16T14:19:03;7.10;;;3.50;;
76597;SDS011;65486;53.144;18.134;2023-04-16T14:21:30;4.00;;;2.50;;
76597;SDS011;65486;53.144;18.134;2023-04-16T14:23:57;6.60;;;4.20;;
76597;SDS011;65486;53.144;18.134;2023-04-16T14:26:24;5.70;;;3.50;;
76597;SDS011;65486;53.144;18.134;2023-04-16T14:28:52;6.20;;;3.70;;
76597;SDS011;65486;53.144;18.134;2023-04-16T14:31:20;6.40;;;4.00;;
76597;SDS011;65486;53.144;18.134;2023-04-16T14:33:49;5.90;;;3.40;;
76597;SDS011;65486;53.144;18.134;2023-04-16T14:36:19;7.40;;;3.50;;
76597;SDS011;65486;53.144;18.134;2023-04-16T14:38:46;6.10;;;3.40;;
76597;SDS011;65486;53.144;18.134;2023-04-16T14:41:16;6.20;;;3.90;;
76597;SDS011;65486;53.144;18.134;2023-04-16T14:43:52;5.70;;;3.80;;
76597;SDS011;65486;53.144;18.134;2023-04-16T14:46:32;5.80;;;3.30;;
76597;SDS011;65486;53.144;18.134;2023-04-16T14:48:59;9.90;;;4.30;;
76597;SDS011;65486;53.144;18.134;2023-04-16T14:51:28;17.50;;;7.90;;
76597;SDS011;65486;53.144;18.134;2023-04-16T14:53:59;16.10;;;6.60;;
76597;SDS011;65486;53.144;18.134;2023-04-16T14:56:28;8.60;;;4.60;;
76597;SDS011;65486;53.144;18.134;2023-04-16T14:59:06;11.80;;;5.50;;
76597;SDS011;65486;53.144;18.134;2023-04-16T15:01:35;18.50;;;7.00;;
76597;SDS011;65486;53.144;18.134;2023-04-16T15:04:07;25.10;;;8.60;;
76597;SDS011;65486;53.144;18.134;2023-04-16T15:06:34;22.90;;;8.60;;
76597;SDS011;65486;53.144;18.134;2023-04-16T15:09:09;17.60;;;6.60;;